sensor_id;sensor_type;location;lat;lon;timestamp;temperature;humidity
26641;DHT22;14269;47.358;0.724;2022-10-13T00:00:08;15.0;73.0
26641;DHT22;14269;47.358;0.724;2022-10-13T00:02:49;15.0;73.0
26641;DHT22;14269;47.358;0.724;2022-10-13T00:05:20;15.0;73.0
26641;DHT22;14269;47.358;0.724;2022-10-13T00:07:52;15.0;73.0
26641;DHT22;14269;47.358;0.724;2022-10-13T00:10:24;15.0;72.0
26641;DHT22;14269;47.358;0.724;2022-10-13T00:12:56;15.0;73.0
26641;DHT22;14269;47.358;0.724;2022-10-13T00:15:27;15.0;72.0
26641;DHT22;14269;47.358;0.724;2022-10-13T00:17:59;15.0;72.0
26641;DHT22;14269;47.358;0.724;2022-10-13T00:20:30;15.0;73.0
26641;DHT22;14269;47.358;0.724;2022-10-13T00:23:02;15.0;72.0
26641;DHT22;14269;47.358;0.724;2022-10-13T00:25:33;15.0;72.0
26641;DHT22;14269;47.358;0.724;2022-10-13T00:28:05;15.0;73.0
26641;DHT22;14269;47.358;0.724;2022-10-13T00:30:37;15.0;73.0
26641;DHT22;14269;47.358;0.724;2022-10-13T00:33:10;15.0;73.0
26641;DHT22;14269;47.358;0.724;2022-10-13T00:35:50;15.0;73.0
26641;DHT22;14269;47.358;0.724;2022-10-13T00:38:22;15.0;73.0
26641;DHT22;14269;47.358;0.724;2022-10-13T00:40:55;15.0;74.0
26641;DHT22;14269;47.358;0.724;2022-10-13T00:43:49;15.0;74.0
26641;DHT22;14269;47.358;0.724;2022-10-13T00:46:29;15.0;74.0
26641;DHT22;14269;47.358;0.724;2022-10-13T00:49:11;15.0;75.0
26641;DHT22;14269;47.358;0.724;2022-10-13T00:51:51;15.0;75.0
26641;DHT22;14269;47.358;0.724;2022-10-13T00:54:23;15.0;75.0
26641;DHT22;14269;47.358;0.724;2022-10-13T00:56:54;15.0;75.0
26641;DHT22;14269;47.358;0.724;2022-10-13T00:59:28;15.0;74.0
26641;DHT22;14269;47.358;0.724;2022-10-13T01:02:07;15.0;73.0
26641;DHT22;14269;47.358;0.724;2022-10-13T01:04:43;15.0;73.0
26641;DHT22;14269;47.358;0.724;2022-10-13T01:07:21;15.0;73.0
26641;DHT22;14269;47.358;0.724;2022-10-13T01:09:52;15.0;73.0
26641;DHT22;14269;47.358;0.724;2022-10-13T01:12:34;15.0;74.0
26641;DHT22;14269;47.358;0.724;2022-10-13T01:15:20;15.0;74.0
26641;DHT22;14269;47.358;0.724;2022-10-13T01:18:04;15.0;73.0
26641;DHT22;14269;47.358;0.724;2022-10-13T01:21:17;15.0;73.0
26641;DHT22;14269;47.358;0.724;2022-10-13T01:24:09;15.0;73.0
26641;DHT22;14269;47.358;0.724;2022-10-13T01:27:04;15.0;73.0
26641;DHT22;14269;47.358;0.724;2022-10-13T01:30:04;15.0;74.0
26641;DHT22;14269;47.358;0.724;2022-10-13T01:32:53;15.0;73.0
26641;DHT22;14269;47.358;0.724;2022-10-13T01:35:37;15.0;73.0
26641;DHT22;14269;47.358;0.724;2022-10-13T01:38:20;15.0;73.0
26641;DHT22;14269;47.358;0.724;2022-10-13T01:41:10;15.0;73.0
26641;DHT22;14269;47.358;0.724;2022-10-13T01:43:49;15.0;73.0
26641;DHT22;14269;47.358;0.724;2022-10-13T01:46:29;15.0;73.0
26641;DHT22;14269;47.358;0.724;2022-10-13T01:49:10;15.0;74.0
26641;DHT22;14269;47.358;0.724;2022-10-13T01:51:51;15.0;74.0
26641;DHT22;14269;47.358;0.724;2022-10-13T01:54:32;15.0;74.0
26641;DHT22;14269;47.358;0.724;2022-10-13T01:57:03;15.0;74.0
26641;DHT22;14269;47.358;0.724;2022-10-13T01:59:37;15.0;74.0
26641;DHT22;14269;47.358;0.724;2022-10-13T02:02:20;15.0;75.0
26641;DHT22;14269;47.358;0.724;2022-10-13T02:05:08;15.0;74.0
26641;DHT22;14269;47.358;0.724;2022-10-13T02:07:55;15.0;74.0
26641;DHT22;14269;47.358;0.724;2022-10-13T02:10:36;15.0;73.0
26641;DHT22;14269;47.358;0.724;2022-10-13T02:13:15;15.0;74.0
26641;DHT22;14269;47.358;0.724;2022-10-13T02:15:58;15.0;74.0
26641;DHT22;14269;47.358;0.724;2022-10-13T02:18:37;15.0;74.0
26641;DHT22;14269;47.358;0.724;2022-10-13T02:21:09;15.0;74.0
26641;DHT22;14269;47.358;0.724;2022-10-13T02:23:42;15.0;74.0
26641;DHT22;14269;47.358;0.724;2022-10-13T02:26:22;15.0;74.0
26641;DHT22;14269;47.358;0.724;2022-10-13T02:28:54;15.0;75.0
26641;DHT22;14269;47.358;0.724;2022-10-13T02:31:25;14.0;75.0
26641;DHT22;14269;47.358;0.724;2022-10-13T02:33:57;14.0;76.0
26641;DHT22;14269;47.358;0.724;2022-10-13T02:36:29;14.0;76.0
26641;DHT22;14269;47.358;0.724;2022-10-13T02:39:00;15.0;76.0
26641;DHT22;14269;47.358;0.724;2022-10-13T02:41:32;14.0;76.0
26641;DHT22;14269;47.358;0.724;2022-10-13T02:44:04;15.0;76.0
26641;DHT22;14269;47.358;0.724;2022-10-13T02:46:35;15.0;75.0
26641;DHT22;14269;47.358;0.724;2022-10-13T02:49:08;15.0;75.0
26641;DHT22;14269;47.358;0.724;2022-10-13T02:51:49;15.0;75.0
26641;DHT22;14269;47.358;0.724;2022-10-13T02:54:20;15.0;75.0
26641;DHT22;14269;47.358;0.724;2022-10-13T02:56:52;15.0;75.0
26641;DHT22;14269;47.358;0.724;2022-10-13T02:59:24;15.0;75.0
26641;DHT22;14269;47.358;0.724;2022-10-13T03:01:55;15.0;75.0
26641;DHT22;14269;47.358;0.724;2022-10-13T03:04:27;15.0;75.0
26641;DHT22;14269;47.358;0.724;2022-10-13T03:06:59;15.0;75.0
26641;DHT22;14269;47.358;0.724;2022-10-13T03:09:31;15.0;75.0
26641;DHT22;14269;47.358;0.724;2022-10-13T03:12:02;15.0;75.0
26641;DHT22;14269;47.358;0.724;2022-10-13T03:14:34;15.0;75.0
26641;DHT22;14269;47.358;0.724;2022-10-13T03:17:05;15.0;75.0
26641;DHT22;14269;47.358;0.724;2022-10-13T03:19:37;15.0;75.0
26641;DHT22;14269;47.358;0.724;2022-10-13T03:22:09;15.0;75.0
26641;DHT22;14269;47.358;0.724;2022-10-13T03:24:40;15.0;75.0
26641;DHT22;14269;47.358;0.724;2022-10-13T03:27:12;15.0;74.0
26641;DHT22;14269;47.358;0.724;2022-10-13T03:29:43;15.0;75.0
26641;DHT22;14269;47.358;0.724;2022-10-13T03:32:15;15.0;74.0
26641;DHT22;14269;47.358;0.724;2022-10-13T03:34:47;15.0;74.0
26641;DHT22;14269;47.358;0.724;2022-10-13T03:37:18;15.0;74.0
26641;DHT22;14269;47.358;0.724;2022-10-13T03:39:50;15.0;75.0
26641;DHT22;14269;47.358;0.724;2022-10-13T03:42:22;15.0;74.0
26641;DHT22;14269;47.358;0.724;2022-10-13T03:44:53;15.0;74.0
26641;DHT22;14269;47.358;0.724;2022-10-13T03:47:25;15.0;74.0
26641;DHT22;14269;47.358;0.724;2022-10-13T03:49:56;15.0;74.0
26641;DHT22;14269;47.358;0.724;2022-10-13T03:52:28;15.0;75.0
26641;DHT22;14269;47.358;0.724;2022-10-13T03:55:00;15.0;75.0
26641;DHT22;14269;47.358;0.724;2022-10-13T03:57:31;15.0;75.0
26641;DHT22;14269;47.358;0.724;2022-10-13T04:00:08;15.0;75.0
26641;DHT22;14269;47.358;0.724;2022-10-13T04:02:47;15.0;75.0
26641;DHT22;14269;47.358;0.724;2022-10-13T04:05:27;15.0;75.0
26641;DHT22;14269;47.358;0.724;2022-10-13T04:07:58;15.0;76.0
26641;DHT22;14269;47.358;0.724;2022-10-13T04:10:30;15.0;75.0
26641;DHT22;14269;47.358;0.724;2022-10-13T04:13:02;15.0;75.0
26641;DHT22;14269;47.358;0.724;2022-10-13T04:15:35;15.0;75.0
26641;DHT22;14269;47.358;0.724;2022-10-13T04:18:15;15.0;75.0
26641;DHT22;14269;47.358;0.724;2022-10-13T04:20:47;15.0;75.0
26641;DHT22;14269;47.358;0.724;2022-10-13T04:23:18;15.0;75.0
26641;DHT22;14269;47.358;0.724;2022-10-13T04:25:50;15.0;75.0
26641;DHT22;14269;47.358;0.724;2022-10-13T04:28:21;15.0;76.0
26641;DHT22;14269;47.358;0.724;2022-10-13T04:30:53;15.0;77.0
26641;DHT22;14269;47.358;0.724;2022-10-13T04:33:25;15.0;77.0
26641;DHT22;14269;47.358;0.724;2022-10-13T04:35:57;15.0;77.0
26641;DHT22;14269;47.358;0.724;2022-10-13T04:38:28;14.0;78.0
26641;DHT22;14269;47.358;0.724;2022-10-13T04:41:01;14.0;78.0
26641;DHT22;14269;47.358;0.724;2022-10-13T04:43:42;15.0;77.0
26641;DHT22;14269;47.358;0.724;2022-10-13T04:46:15;15.0;77.0
26641;DHT22;14269;47.358;0.724;2022-10-13T04:48:55;14.0;78.0
26641;DHT22;14269;47.358;0.724;2022-10-13T04:51:27;14.0;78.0
26641;DHT22;14269;47.358;0.724;2022-10-13T04:54:01;14.0;79.0
26641;DHT22;14269;47.358;0.724;2022-10-13T04:56:42;14.0;79.0
26641;DHT22;14269;47.358;0.724;2022-10-13T04:59:22;14.0;79.0
26641;DHT22;14269;47.358;0.724;2022-10-13T05:01:53;14.0;79.0
26641;DHT22;14269;47.358;0.724;2022-10-13T05:04:25;14.0;79.0
26641;DHT22;14269;47.358;0.724;2022-10-13T05:06:57;14.0;79.0
26641;DHT22;14269;47.358;0.724;2022-10-13T05:09:28;14.0;79.0
26641;DHT22;14269;47.358;0.724;2022-10-13T05:12:00;14.0;78.0
26641;DHT22;14269;47.358;0.724;2022-10-13T05:14:32;14.0;78.0
26641;DHT22;14269;47.358;0.724;2022-10-13T05:17:13;14.0;79.0
26641;DHT22;14269;47.358;0.724;2022-10-13T05:19:45;14.0;79.0
26641;DHT22;14269;47.358;0.724;2022-10-13T05:22:17;14.0;79.0
26641;DHT22;14269;47.358;0.724;2022-10-13T05:24:48;14.0;79.0
26641;DHT22;14269;47.358;0.724;2022-10-13T05:27:22;14.0;80.0
26641;DHT22;14269;47.358;0.724;2022-10-13T05:30:02;14.0;79.0
26641;DHT22;14269;47.358;0.724;2022-10-13T05:32:34;14.0;79.0
26641;DHT22;14269;47.358;0.724;2022-10-13T05:35:06;14.0;80.0
26641;DHT22;14269;47.358;0.724;2022-10-13T05:37:37;14.0;80.0
26641;DHT22;14269;47.358;0.724;2022-10-13T05:40:09;14.0;80.0
26641;DHT22;14269;47.358;0.724;2022-10-13T05:42:51;14.0;80.0
26641;DHT22;14269;47.358;0.724;2022-10-13T05:45:32;14.0;80.0
26641;DHT22;14269;47.358;0.724;2022-10-13T05:48:04;14.0;80.0
26641;DHT22;14269;47.358;0.724;2022-10-13T05:50:36;14.0;80.0
26641;DHT22;14269;47.358;0.724;2022-10-13T05:53:07;14.0;80.0
26641;DHT22;14269;47.358;0.724;2022-10-13T05:55:38;14.0;80.0
26641;DHT22;14269;47.358;0.724;2022-10-13T05:58:10;14.0;80.0
26641;DHT22;14269;47.358;0.724;2022-10-13T06:00:42;14.0;80.0
26641;DHT22;14269;47.358;0.724;2022-10-13T06:03:16;14.0;80.0
26641;DHT22;14269;47.358;0.724;2022-10-13T06:05:55;14.0;80.0
26641;DHT22;14269;47.358;0.724;2022-10-13T06:08:28;14.0;80.0
26641;DHT22;14269;47.358;0.724;2022-10-13T06:11:08;14.0;80.0
26641;DHT22;14269;47.358;0.724;2022-10-13T06:13:40;14.0;79.0
26641;DHT22;14269;47.358;0.724;2022-10-13T06:16:12;14.0;80.0
26641;DHT22;14269;47.358;0.724;2022-10-13T06:18:43;14.0;80.0
26641;DHT22;14269;47.358;0.724;2022-10-13T06:21:16;14.0;80.0
26641;DHT22;14269;47.358;0.724;2022-10-13T06:23:47;14.0;80.0
26641;DHT22;14269;47.358;0.724;2022-10-13T06:26:18;14.0;80.0
26641;DHT22;14269;47.358;0.724;2022-10-13T06:28:50;14.0;80.0
26641;DHT22;14269;47.358;0.724;2022-10-13T06:31:22;14.0;80.0
26641;DHT22;14269;47.358;0.724;2022-10-13T06:33:54;14.0;80.0
26641;DHT22;14269;47.358;0.724;2022-10-13T06:36:25;14.0;80.0
26641;DHT22;14269;47.358;0.724;2022-10-13T06:38:57;14.0;80.0
26641;DHT22;14269;47.358;0.724;2022-10-13T06:41:28;14.0;80.0
26641;DHT22;14269;47.358;0.724;2022-10-13T06:44:00;14.0;80.0
26641;DHT22;14269;47.358;0.724;2022-10-13T06:46:31;14.0;80.0
26641;DHT22;14269;47.358;0.724;2022-10-13T06:49:03;14.0;80.0
26641;DHT22;14269;47.358;0.724;2022-10-13T06:51:35;14.0;81.0
26641;DHT22;14269;47.358;0.724;2022-10-13T06:54:06;14.0;81.0
26641;DHT22;14269;47.358;0.724;2022-10-13T06:56:38;14.0;81.0
26641;DHT22;14269;47.358;0.724;2022-10-13T06:59:10;14.0;81.0
26641;DHT22;14269;47.358;0.724;2022-10-13T07:01:41;14.0;81.0
26641;DHT22;14269;47.358;0.724;2022-10-13T07:04:13;14.0;81.0
26641;DHT22;14269;47.358;0.724;2022-10-13T07:06:45;14.0;81.0
26641;DHT22;14269;47.358;0.724;2022-10-13T07:09:16;14.0;80.0
26641;DHT22;14269;47.358;0.724;2022-10-13T07:11:49;14.0;81.0
26641;DHT22;14269;47.358;0.724;2022-10-13T07:14:20;14.0;80.0
26641;DHT22;14269;47.358;0.724;2022-10-13T07:16:51;14.0;80.0
26641;DHT22;14269;47.358;0.724;2022-10-13T07:19:23;14.0;80.0
26641;DHT22;14269;47.358;0.724;2022-10-13T07:21:55;14.0;80.0
26641;DHT22;14269;47.358;0.724;2022-10-13T07:24:27;14.0;79.0
26641;DHT22;14269;47.358;0.724;2022-10-13T07:26:58;14.0;79.0
26641;DHT22;14269;47.358;0.724;2022-10-13T07:29:29;14.0;79.0
26641;DHT22;14269;47.358;0.724;2022-10-13T07:32:01;14.0;79.0
26641;DHT22;14269;47.358;0.724;2022-10-13T07:34:33;14.0;79.0
26641;DHT22;14269;47.358;0.724;2022-10-13T07:37:04;14.0;79.0
26641;DHT22;14269;47.358;0.724;2022-10-13T07:39:36;14.0;79.0
26641;DHT22;14269;47.358;0.724;2022-10-13T07:42:08;14.0;79.0
26641;DHT22;14269;47.358;0.724;2022-10-13T07:44:39;14.0;79.0
26641;DHT22;14269;47.358;0.724;2022-10-13T07:47:11;15.0;78.0
26641;DHT22;14269;47.358;0.724;2022-10-13T07:49:43;14.0;78.0
26641;DHT22;14269;47.358;0.724;2022-10-13T07:52:14;14.0;78.0
26641;DHT22;14269;47.358;0.724;2022-10-13T07:54:46;14.0;79.0
26641;DHT22;14269;47.358;0.724;2022-10-13T07:57:18;14.0;79.0
26641;DHT22;14269;47.358;0.724;2022-10-13T07:59:50;15.0;78.0
26641;DHT22;14269;47.358;0.724;2022-10-13T08:02:21;15.0;78.0
26641;DHT22;14269;47.358;0.724;2022-10-13T08:04:52;15.0;77.0
26641;DHT22;14269;47.358;0.724;2022-10-13T08:07:24;15.0;78.0
26641;DHT22;14269;47.358;0.724;2022-10-13T08:09:56;15.0;78.0
26641;DHT22;14269;47.358;0.724;2022-10-13T08:12:27;15.0;78.0
26641;DHT22;14269;47.358;0.724;2022-10-13T08:14:59;15.0;78.0
26641;DHT22;14269;47.358;0.724;2022-10-13T08:17:31;15.0;77.0
26641;DHT22;14269;47.358;0.724;2022-10-13T08:20:04;15.0;78.0
26641;DHT22;14269;47.358;0.724;2022-10-13T08:22:44;15.0;77.0
26641;DHT22;14269;47.358;0.724;2022-10-13T08:25:16;15.0;77.0
26641;DHT22;14269;47.358;0.724;2022-10-13T08:27:47;15.0;77.0
26641;DHT22;14269;47.358;0.724;2022-10-13T08:30:19;15.0;78.0
26641;DHT22;14269;47.358;0.724;2022-10-13T08:32:51;15.0;78.0
26641;DHT22;14269;47.358;0.724;2022-10-13T08:35:22;15.0;78.0
26641;DHT22;14269;47.358;0.724;2022-10-13T08:37:54;15.0;79.0
26641;DHT22;14269;47.358;0.724;2022-10-13T08:40:26;15.0;79.0
26641;DHT22;14269;47.358;0.724;2022-10-13T08:42:58;15.0;79.0
26641;DHT22;14269;47.358;0.724;2022-10-13T08:45:29;15.0;79.0
26641;DHT22;14269;47.358;0.724;2022-10-13T08:48:03;15.0;79.0
26641;DHT22;14269;47.358;0.724;2022-10-13T08:50:45;15.0;80.0
26641;DHT22;14269;47.358;0.724;2022-10-13T08:53:27;15.0;79.0
26641;DHT22;14269;47.358;0.724;2022-10-13T08:56:09;15.0;79.0
26641;DHT22;14269;47.358;0.724;2022-10-13T08:58:50;15.0;79.0
26641;DHT22;14269;47.358;0.724;2022-10-13T09:01:31;15.0;79.0
26641;DHT22;14269;47.358;0.724;2022-10-13T09:04:24;15.0;78.0
26641;DHT22;14269;47.358;0.724;2022-10-13T09:07:06;15.0;78.0
26641;DHT22;14269;47.358;0.724;2022-10-13T09:09:49;15.0;78.0
26641;DHT22;14269;47.358;0.724;2022-10-13T09:12:27;15.0;78.0
26641;DHT22;14269;47.358;0.724;2022-10-13T09:15:02;15.0;77.0
26641;DHT22;14269;47.358;0.724;2022-10-13T09:17:40;15.0;77.0
26641;DHT22;14269;47.358;0.724;2022-10-13T09:20:18;15.0;77.0
26641;DHT22;14269;47.358;0.724;2022-10-13T09:23:03;16.0;76.0
26641;DHT22;14269;47.358;0.724;2022-10-13T09:25:40;16.0;76.0
26641;DHT22;14269;47.358;0.724;2022-10-13T09:28:21;16.0;75.0
26641;DHT22;14269;47.358;0.724;2022-10-13T09:31:01;16.0;75.0
26641;DHT22;14269;47.358;0.724;2022-10-13T09:33:40;16.0;74.0
26641;DHT22;14269;47.358;0.724;2022-10-13T09:36:13;16.0;74.0
26641;DHT22;14269;47.358;0.724;2022-10-13T09:39:13;16.0;74.0
26641;DHT22;14269;47.358;0.724;2022-10-13T09:41:46;16.0;74.0
26641;DHT22;14269;47.358;0.724;2022-10-13T09:44:27;16.0;74.0
26641;DHT22;14269;47.358;0.724;2022-10-13T09:47:01;16.0;74.0
26641;DHT22;14269;47.358;0.724;2022-10-13T09:49:42;16.0;73.0
26641;DHT22;14269;47.358;0.724;2022-10-13T09:52:24;16.0;73.0
26641;DHT22;14269;47.358;0.724;2022-10-13T09:55:27;16.0;72.0
26641;DHT22;14269;47.358;0.724;2022-10-13T09:58:13;16.0;72.0
26641;DHT22;14269;47.358;0.724;2022-10-13T10:00:49;16.0;71.0
26641;DHT22;14269;47.358;0.724;2022-10-13T10:03:31;16.0;72.0
26641;DHT22;14269;47.358;0.724;2022-10-13T10:06:13;16.0;72.0
26641;DHT22;14269;47.358;0.724;2022-10-13T10:08:57;16.0;72.0
26641;DHT22;14269;47.358;0.724;2022-10-13T10:11:39;16.0;72.0
26641;DHT22;14269;47.358;0.724;2022-10-13T10:14:23;16.0;72.0
26641;DHT22;14269;47.358;0.724;2022-10-13T10:17:05;16.0;72.0
26641;DHT22;14269;47.358;0.724;2022-10-13T10:19:48;16.0;72.0
26641;DHT22;14269;47.358;0.724;2022-10-13T10:22:33;16.0;73.0
26641;DHT22;14269;47.358;0.724;2022-10-13T10:25:24;17.0;72.0
26641;DHT22;14269;47.358;0.724;2022-10-13T10:28:37;17.0;73.0
26641;DHT22;14269;47.358;0.724;2022-10-13T10:31:28;16.0;74.0
26641;DHT22;14269;47.358;0.724;2022-10-13T10:34:09;16.0;74.0
26641;DHT22;14269;47.358;0.724;2022-10-13T10:36:59;16.0;74.0
26641;DHT22;14269;47.358;0.724;2022-10-13T10:39:37;16.0;74.0
26641;DHT22;14269;47.358;0.724;2022-10-13T10:42:37;16.0;75.0
26641;DHT22;14269;47.358;0.724;2022-10-13T10:45:20;16.0;75.0
26641;DHT22;14269;47.358;0.724;2022-10-13T10:48:01;16.0;75.0
26641;DHT22;14269;47.358;0.724;2022-10-13T10:50:41;16.0;75.0
26641;DHT22;14269;47.358;0.724;2022-10-13T10:53:16;16.0;75.0
26641;DHT22;14269;47.358;0.724;2022-10-13T10:55:59;16.0;75.0
26641;DHT22;14269;47.358;0.724;2022-10-13T10:58:40;16.0;75.0
26641;DHT22;14269;47.358;0.724;2022-10-13T11:01:27;16.0;75.0
26641;DHT22;14269;47.358;0.724;2022-10-13T11:04:32;16.0;76.0
26641;DHT22;14269;47.358;0.724;2022-10-13T11:07:33;16.0;76.0
26641;DHT22;14269;47.358;0.724;2022-10-13T11:10:25;17.0;76.0
26641;DHT22;14269;47.358;0.724;2022-10-13T11:13:16;17.0;76.0
26641;DHT22;14269;47.358;0.724;2022-10-13T11:15:47;17.0;75.0
26641;DHT22;14269;47.358;0.724;2022-10-13T11:20:56;17.0;76.0
26641;DHT22;14269;47.358;0.724;2022-10-13T11:23:33;17.0;76.0
26641;DHT22;14269;47.358;0.724;2022-10-13T11:27:18;17.0;76.0
26641;DHT22;14269;47.358;0.724;2022-10-13T11:29:58;17.0;77.0
26641;DHT22;14269;47.358;0.724;2022-10-13T11:32:44;17.0;77.0
26641;DHT22;14269;47.358;0.724;2022-10-13T11:35:30;16.0;78.0
26641;DHT22;14269;47.358;0.724;2022-10-13T11:38:16;17.0;78.0
26641;DHT22;14269;47.358;0.724;2022-10-13T11:41:04;17.0;78.0
26641;DHT22;14269;47.358;0.724;2022-10-13T11:43:50;17.0;78.0
26641;DHT22;14269;47.358;0.724;2022-10-13T11:46:35;17.0;78.0
26641;DHT22;14269;47.358;0.724;2022-10-13T11:49:22;17.0;78.0
26641;DHT22;14269;47.358;0.724;2022-10-13T11:52:12;17.0;79.0
26641;DHT22;14269;47.358;0.724;2022-10-13T11:54:56;17.0;79.0
26641;DHT22;14269;47.358;0.724;2022-10-13T11:57:34;17.0;79.0
26641;DHT22;14269;47.358;0.724;2022-10-13T12:00:13;17.0;79.0
26641;DHT22;14269;47.358;0.724;2022-10-13T12:02:49;17.0;80.0
26641;DHT22;14269;47.358;0.724;2022-10-13T12:05:30;17.0;80.0
26641;DHT22;14269;47.358;0.724;2022-10-13T12:08:11;17.0;80.0
26641;DHT22;14269;47.358;0.724;2022-10-13T12:10:43;17.0;80.0
26641;DHT22;14269;47.358;0.724;2022-10-13T12:13:20;17.0;81.0
26641;DHT22;14269;47.358;0.724;2022-10-13T12:15:59;17.0;80.0
26641;DHT22;14269;47.358;0.724;2022-10-13T12:18:38;17.0;81.0
26641;DHT22;14269;47.358;0.724;2022-10-13T12:21:12;17.0;81.0
26641;DHT22;14269;47.358;0.724;2022-10-13T12:24:05;17.0;81.0
26641;DHT22;14269;47.358;0.724;2022-10-13T12:26:43;17.0;81.0
26641;DHT22;14269;47.358;0.724;2022-10-13T12:29:16;17.0;80.0
26641;DHT22;14269;47.358;0.724;2022-10-13T12:31:57;17.0;81.0
26641;DHT22;14269;47.358;0.724;2022-10-13T12:34:38;17.0;81.0
26641;DHT22;14269;47.358;0.724;2022-10-13T12:37:14;17.0;80.0
26641;DHT22;14269;47.358;0.724;2022-10-13T12:39:53;17.0;81.0
26641;DHT22;14269;47.358;0.724;2022-10-13T12:42:34;17.0;80.0
26641;DHT22;14269;47.358;0.724;2022-10-13T12:45:18;17.0;80.0
26641;DHT22;14269;47.358;0.724;2022-10-13T12:47:57;17.0;80.0
26641;DHT22;14269;47.358;0.724;2022-10-13T12:50:34;17.0;80.0
26641;DHT22;14269;47.358;0.724;2022-10-13T12:53:14;17.0;81.0
26641;DHT22;14269;47.358;0.724;2022-10-13T12:55:55;17.0;80.0
26641;DHT22;14269;47.358;0.724;2022-10-13T12:58:34;17.0;80.0
26641;DHT22;14269;47.358;0.724;2022-10-13T13:01:08;17.0;80.0
26641;DHT22;14269;47.358;0.724;2022-10-13T13:03:54;17.0;80.0
26641;DHT22;14269;47.358;0.724;2022-10-13T13:06:31;17.0;80.0
26641;DHT22;14269;47.358;0.724;2022-10-13T13:09:22;17.0;80.0
26641;DHT22;14269;47.358;0.724;2022-10-13T13:12:05;17.0;80.0
26641;DHT22;14269;47.358;0.724;2022-10-13T13:14:47;17.0;80.0
26641;DHT22;14269;47.358;0.724;2022-10-13T13:17:30;17.0;81.0
26641;DHT22;14269;47.358;0.724;2022-10-13T13:20:19;17.0;80.0
26641;DHT22;14269;47.358;0.724;2022-10-13T13:23:00;17.0;81.0
26641;DHT22;14269;47.358;0.724;2022-10-13T13:25:31;17.0;81.0
26641;DHT22;14269;47.358;0.724;2022-10-13T13:28:08;17.0;82.0
26641;DHT22;14269;47.358;0.724;2022-10-13T13:30:45;17.0;82.0
26641;DHT22;14269;47.358;0.724;2022-10-13T13:33:16;17.0;82.0
26641;DHT22;14269;47.358;0.724;2022-10-13T13:35:48;17.0;82.0
26641;DHT22;14269;47.358;0.724;2022-10-13T13:38:20;17.0;82.0
26641;DHT22;14269;47.358;0.724;2022-10-13T13:40:51;17.0;82.0
26641;DHT22;14269;47.358;0.724;2022-10-13T13:43:23;17.0;83.0
26641;DHT22;14269;47.358;0.724;2022-10-13T13:45:55;17.0;83.0
26641;DHT22;14269;47.358;0.724;2022-10-13T13:48:26;17.0;83.0
26641;DHT22;14269;47.358;0.724;2022-10-13T13:50:58;17.0;84.0
26641;DHT22;14269;47.358;0.724;2022-10-13T13:53:30;17.0;84.0
26641;DHT22;14269;47.358;0.724;2022-10-13T13:56:01;17.0;84.0
26641;DHT22;14269;47.358;0.724;2022-10-13T13:58:33;17.0;84.0
26641;DHT22;14269;47.358;0.724;2022-10-13T14:01:04;17.0;84.0
26641;DHT22;14269;47.358;0.724;2022-10-13T14:03:37;17.0;85.0
26641;DHT22;14269;47.358;0.724;2022-10-13T14:06:08;17.0;85.0
26641;DHT22;14269;47.358;0.724;2022-10-13T14:08:50;16.0;85.0
26641;DHT22;14269;47.358;0.724;2022-10-13T14:11:21;16.0;85.0
26641;DHT22;14269;47.358;0.724;2022-10-13T14:13:53;16.0;85.0
26641;DHT22;14269;47.358;0.724;2022-10-13T14:16:24;16.0;86.0
26641;DHT22;14269;47.358;0.724;2022-10-13T14:18:57;16.0;86.0
26641;DHT22;14269;47.358;0.724;2022-10-13T14:21:28;16.0;86.0
26641;DHT22;14269;47.358;0.724;2022-10-13T14:23:59;16.0;86.0
26641;DHT22;14269;47.358;0.724;2022-10-13T14:26:31;16.0;86.0
26641;DHT22;14269;47.358;0.724;2022-10-13T14:29:03;16.0;87.0
26641;DHT22;14269;47.358;0.724;2022-10-13T14:31:34;16.0;87.0
26641;DHT22;14269;47.358;0.724;2022-10-13T14:34:06;16.0;87.0
26641;DHT22;14269;47.358;0.724;2022-10-13T14:36:38;16.0;87.0
26641;DHT22;14269;47.358;0.724;2022-10-13T14:39:09;16.0;87.0
26641;DHT22;14269;47.358;0.724;2022-10-13T14:41:41;16.0;87.0
26641;DHT22;14269;47.358;0.724;2022-10-13T14:44:13;16.0;88.0
26641;DHT22;14269;47.358;0.724;2022-10-13T14:46:44;16.0;88.0
26641;DHT22;14269;47.358;0.724;2022-10-13T14:49:16;16.0;87.0
26641;DHT22;14269;47.358;0.724;2022-10-13T14:51:48;16.0;88.0
26641;DHT22;14269;47.358;0.724;2022-10-13T14:54:19;16.0;87.0
26641;DHT22;14269;47.358;0.724;2022-10-13T14:56:51;16.0;87.0
26641;DHT22;14269;47.358;0.724;2022-10-13T14:59:22;16.0;87.0
26641;DHT22;14269;47.358;0.724;2022-10-13T15:01:54;16.0;87.0
26641;DHT22;14269;47.358;0.724;2022-10-13T15:04:26;16.0;87.0
26641;DHT22;14269;47.358;0.724;2022-10-13T15:06:57;16.0;88.0
26641;DHT22;14269;47.358;0.724;2022-10-13T15:09:29;16.0;87.0
26641;DHT22;14269;47.358;0.724;2022-10-13T15:12:01;16.0;87.0
26641;DHT22;14269;47.358;0.724;2022-10-13T15:14:32;16.0;88.0
26641;DHT22;14269;47.358;0.724;2022-10-13T15:17:04;16.0;88.0
26641;DHT22;14269;47.358;0.724;2022-10-13T15:19:36;16.0;88.0
26641;DHT22;14269;47.358;0.724;2022-10-13T15:22:07;16.0;88.0
26641;DHT22;14269;47.358;0.724;2022-10-13T15:24:39;16.0;88.0
26641;DHT22;14269;47.358;0.724;2022-10-13T15:27:11;16.0;88.0
26641;DHT22;14269;47.358;0.724;2022-10-13T15:29:42;16.0;88.0
26641;DHT22;14269;47.358;0.724;2022-10-13T15:32:17;16.0;88.0
26641;DHT22;14269;47.358;0.724;2022-10-13T15:34:56;16.0;88.0
26641;DHT22;14269;47.358;0.724;2022-10-13T15:37:27;16.0;88.0
26641;DHT22;14269;47.358;0.724;2022-10-13T15:39:59;16.0;88.0
26641;DHT22;14269;47.358;0.724;2022-10-13T15:42:30;16.0;88.0
26641;DHT22;14269;47.358;0.724;2022-10-13T15:45:03;16.0;88.0
26641;DHT22;14269;47.358;0.724;2022-10-13T15:47:34;16.0;88.0
26641;DHT22;14269;47.358;0.724;2022-10-13T15:50:06;16.0;89.0
26641;DHT22;14269;47.358;0.724;2022-10-13T15:52:47;16.0;89.0
26641;DHT22;14269;47.358;0.724;2022-10-13T15:55:19;16.0;89.0
26641;DHT22;14269;47.358;0.724;2022-10-13T15:57:51;16.0;89.0
26641;DHT22;14269;47.358;0.724;2022-10-13T16:00:22;16.0;89.0
26641;DHT22;14269;47.358;0.724;2022-10-13T16:02:54;16.0;89.0
26641;DHT22;14269;47.358;0.724;2022-10-13T16:05:25;16.0;89.0
26641;DHT22;14269;47.358;0.724;2022-10-13T16:07:57;15.0;89.0
26641;DHT22;14269;47.358;0.724;2022-10-13T16:10:29;15.0;89.0
26641;DHT22;14269;47.358;0.724;2022-10-13T16:13:00;15.0;89.0
26641;DHT22;14269;47.358;0.724;2022-10-13T16:15:32;15.0;89.0
26641;DHT22;14269;47.358;0.724;2022-10-13T16:18:04;15.0;89.0
26641;DHT22;14269;47.358;0.724;2022-10-13T16:20:37;15.0;89.0
26641;DHT22;14269;47.358;0.724;2022-10-13T16:23:17;15.0;89.0
26641;DHT22;14269;47.358;0.724;2022-10-13T16:25:49;15.0;89.0
26641;DHT22;14269;47.358;0.724;2022-10-13T16:28:20;15.0;89.0
26641;DHT22;14269;47.358;0.724;2022-10-13T16:30:52;15.0;88.0
26641;DHT22;14269;47.358;0.724;2022-10-13T16:33:24;15.0;89.0
26641;DHT22;14269;47.358;0.724;2022-10-13T16:36:01;15.0;89.0
26641;DHT22;14269;47.358;0.724;2022-10-13T16:38:37;15.0;89.0
26641;DHT22;14269;47.358;0.724;2022-10-13T16:41:11;15.0;89.0
26641;DHT22;14269;47.358;0.724;2022-10-13T16:43:51;15.0;89.0
26641;DHT22;14269;47.358;0.724;2022-10-13T16:46:22;15.0;89.0
26641;DHT22;14269;47.358;0.724;2022-10-13T16:48:54;15.0;89.0
26641;DHT22;14269;47.358;0.724;2022-10-13T16:51:27;15.0;89.0
26641;DHT22;14269;47.358;0.724;2022-10-13T16:54:07;15.0;89.0
26641;DHT22;14269;47.358;0.724;2022-10-13T16:56:39;15.0;89.0
26641;DHT22;14269;47.358;0.724;2022-10-13T16:59:11;15.0;89.0
26641;DHT22;14269;47.358;0.724;2022-10-13T17:01:44;15.0;89.0